createdAt,value
2022-10-23T00:01:00.404Z,86.37
2022-10-23T00:03:29.840Z,86.46
2022-10-23T00:05:56.467Z,86.44
2022-10-23T00:08:23.288Z,86.78
2022-10-23T00:10:49.926Z,86.73
2022-10-23T00:13:16.564Z,86.56
2022-10-23T00:15:43.407Z,86.40
2022-10-23T00:18:10.187Z,86.37
2022-10-23T00:20:38.467Z,86.53
2022-10-23T00:23:05.292Z,86.61
2022-10-23T00:25:33.393Z,86.54
2022-10-23T00:28:00.366Z,86.50
2022-10-23T00:30:27.357Z,86.14
2022-10-23T00:32:54.000Z,86.66
2022-10-23T00:35:20.661Z,86.14
2022-10-23T00:37:48.817Z,86.38
2022-10-23T00:40:16.394Z,86.50
2022-10-23T00:42:43.302Z,86.17
2022-10-23T00:45:18.912Z,86.20
2022-10-23T00:47:45.973Z,86.15
2022-10-23T00:50:13.520Z,86.16
2022-10-23T00:52:45.450Z,86.22
2022-10-23T00:55:14.351Z,86.21
2022-10-23T00:57:43.697Z,86.32
2022-10-23T01:00:15.079Z,86.29
2022-10-23T01:02:42.195Z,86.39
2022-10-23T01:05:09.967Z,86.33
2022-10-23T01:07:43.568Z,86.04
2022-10-23T01:10:16.062Z,86.45
2022-10-23T01:12:48.698Z,86.26
2022-10-23T01:15:19.540Z,86.10
2022-10-23T01:17:51.177Z,86.10
2022-10-23T01:20:36.444Z,86.35
2022-10-23T01:23:28.229Z,85.96
2022-10-23T01:26:12.772Z,86.05
2022-10-23T01:28:46.911Z,86.41
2022-10-23T01:31:18.579Z,86.21
2022-10-23T01:33:49.074Z,86.23
2022-10-23T01:36:19.156Z,86.00
2022-10-23T01:38:51.773Z,85.97
2022-10-23T01:41:24.793Z,86.28
2022-10-23T01:43:57.407Z,86.58
2022-10-23T01:46:25.963Z,86.07
2022-10-23T01:48:54.915Z,86.28
2022-10-23T01:51:26.175Z,86.21
2022-10-23T01:53:58.138Z,86.19
2022-10-23T01:56:28.719Z,86.12
2022-10-23T01:58:59.964Z,86.27
2022-10-23T02:01:29.984Z,86.37
2022-10-23T02:06:24.309Z,86.28
2022-10-23T02:08:51.024Z,86.54
2022-10-23T02:11:22.677Z,86.58
2022-10-23T02:13:55.498Z,86.35
2022-10-23T02:16:30.535Z,86.60
2022-10-23T02:19:09.353Z,86.50
2022-10-23T02:21:48.357Z,86.51
2022-10-23T02:24:18.801Z,86.41
2022-10-23T02:26:52.595Z,86.76
2022-10-23T02:29:24.956Z,86.51
2022-10-23T02:31:52.970Z,86.83
2022-10-23T02:34:19.870Z,86.77
2022-10-23T02:36:46.483Z,86.58
2022-10-23T02:39:13.184Z,86.53
2022-10-23T02:41:44.946Z,86.92
2022-10-23T02:44:22.605Z,86.75
2022-10-23T02:46:56.343Z,86.60
2022-10-23T02:49:31.355Z,86.68
2022-10-23T02:52:07.753Z,86.68
2022-10-23T02:54:51.201Z,86.94
2022-10-23T02:57:26.405Z,86.57
2022-10-23T03:00:01.153Z,86.76
2022-10-23T03:02:37.682Z,86.81
2022-10-23T03:05:08.640Z,86.54
2022-10-23T03:07:36.109Z,86.62
2022-10-23T03:10:04.787Z,86.97
2022-10-23T03:12:31.410Z,86.59
2022-10-23T03:14:59.633Z,86.94
2022-10-23T03:17:27.197Z,86.82
2022-10-23T03:19:55.347Z,87.00
2022-10-23T03:22:21.961Z,86.92
2022-10-23T03:24:48.619Z,86.93
2022-10-23T03:27:16.772Z,86.80
2022-10-23T03:29:43.449Z,87.07
2022-10-23T03:32:10.068Z,86.97
2022-10-23T03:34:36.686Z,86.94
2022-10-23T03:37:05.565Z,86.64
2022-10-23T03:39:32.178Z,86.48
2022-10-23T03:41:59.019Z,86.77
2022-10-23T03:44:26.239Z,86.80
2022-10-23T03:46:52.903Z,87.03
2022-10-23T03:49:19.556Z,86.78
2022-10-23T03:51:51.967Z,86.86
2022-10-23T03:54:22.399Z,86.98
2022-10-23T03:56:51.453Z,86.80
2022-10-23T03:59:20.651Z,87.10
2022-10-23T04:01:47.626Z,87.09
2022-10-23T04:04:15.106Z,87.27
2022-10-23T04:06:41.905Z,87.21
2022-10-23T04:09:08.763Z,87.17
2022-10-23T04:11:37.111Z,87.09
2022-10-23T04:14:04.011Z,87.05
2022-10-23T04:16:30.712Z,87.12
2022-10-23T04:18:57.346Z,86.92
2022-10-23T04:21:23.993Z,87.05
2022-10-23T04:23:50.630Z,87.01
2022-10-23T04:26:17.665Z,87.09
2022-10-23T04:28:45.626Z,87.22
2022-10-23T04:31:12.391Z,87.30
2022-10-23T04:33:39.073Z,87.19
2022-10-23T04:36:06.641Z,87.54
2022-10-23T04:38:33.292Z,87.46
2022-10-23T04:40:59.935Z,87.21
2022-10-23T04:43:26.831Z,87.56
2022-10-23T04:45:55.789Z,87.63
2022-10-23T04:48:25.564Z,87.51
2022-10-23T04:50:56.590Z,87.44
2022-10-23T04:53:23.605Z,87.76
2022-10-23T04:55:50.842Z,87.50
2022-10-23T04:58:18.945Z,87.72
2022-10-23T05:00:46.238Z,87.96
2022-10-23T05:03:17.783Z,87.57
2022-10-23T05:05:44.873Z,87.81
2022-10-23T05:08:15.556Z,87.68
2022-10-23T05:10:47.212Z,87.93
2022-10-23T05:13:13.903Z,88.13
2022-10-23T05:15:40.611Z,88.00
2022-10-23T05:18:12.001Z,87.70
2022-10-23T05:20:40.577Z,87.78
2022-10-23T05:23:10.512Z,87.86
2022-10-23T05:25:37.274Z,87.82
2022-10-23T05:28:06.350Z,88.00
2022-10-23T05:30:33.862Z,87.87
2022-10-23T05:33:01.741Z,88.07
2022-10-23T05:35:30.208Z,87.95
2022-10-23T05:37:59.900Z,88.04
2022-10-23T05:40:27.561Z,88.10
2022-10-23T05:42:54.232Z,88.14
2022-10-23T05:45:20.980Z,88.03
2022-10-23T05:47:49.167Z,88.11
2022-10-23T05:50:16.879Z,88.57
2022-10-23T05:52:47.379Z,88.39
2022-10-23T05:55:15.833Z,88.22
2022-10-23T05:57:42.913Z,88.47
2022-10-23T06:00:11.311Z,88.17
2022-10-23T06:02:38.086Z,88.32
2022-10-23T06:05:05.218Z,88.42
2022-10-23T06:07:35.142Z,88.29
2022-10-23T06:10:03.204Z,88.40
2022-10-23T06:12:31.574Z,88.49
2022-10-23T06:14:58.391Z,88.50
2022-10-23T06:17:24.988Z,88.26
2022-10-23T06:19:51.642Z,88.62
2022-10-23T06:24:45.065Z,88.37
2022-10-23T06:27:11.666Z,88.69
2022-10-23T06:29:41.574Z,88.68
2022-10-23T06:32:08.284Z,88.74
2022-10-23T06:34:34.964Z,88.62
2022-10-23T06:37:01.967Z,88.78
2022-10-23T06:39:31.254Z,88.69
2022-10-23T06:41:58.932Z,88.76
2022-10-23T06:44:25.568Z,88.90
2022-10-23T06:46:56.061Z,88.81
2022-10-23T06:49:22.698Z,88.93
2022-10-23T06:51:49.340Z,88.69
2022-10-23T06:54:15.965Z,88.90
2022-10-23T06:56:42.580Z,88.58
2022-10-23T06:59:09.172Z,88.79
2022-10-23T07:01:36.122Z,88.82
2022-10-23T07:04:06.473Z,88.66
2022-10-23T07:06:33.325Z,88.69
2022-10-23T07:09:00.136Z,88.66
2022-10-23T07:11:27.466Z,88.62
2022-10-23T07:13:54.072Z,88.70
2022-10-23T07:16:22.513Z,88.84
2022-10-23T07:18:58.701Z,88.74
2022-10-23T07:21:27.184Z,89.03
2022-10-23T07:23:53.833Z,88.70
2022-10-23T07:26:20.523Z,89.05
2022-10-23T07:28:48.571Z,89.02
2022-10-23T07:31:15.217Z,88.81
2022-10-23T07:33:41.839Z,89.24
2022-10-23T07:36:09.782Z,88.82
2022-10-23T07:38:37.735Z,88.63
2022-10-23T07:41:07.781Z,89.02
2022-10-23T07:43:36.734Z,88.93
2022-10-23T07:46:03.443Z,89.07
2022-10-23T07:48:30.803Z,88.87
2022-10-23T07:50:58.359Z,88.86
2022-10-23T07:53:25.962Z,88.92
2022-10-23T07:55:55.600Z,89.01
2022-10-23T07:58:22.817Z,88.96
2022-10-23T08:00:54.953Z,88.78
2022-10-23T08:03:21.795Z,89.14
2022-10-23T08:05:48.507Z,89.08
2022-10-23T08:08:15.516Z,89.07
2022-10-23T08:10:42.682Z,88.92
2022-10-23T08:13:13.256Z,88.96
2022-10-23T08:15:40.385Z,89.11
2022-10-23T08:18:08.213Z,88.92
2022-10-23T08:20:39.130Z,89.04
2022-10-23T08:23:06.215Z,88.91
2022-10-23T08:28:06.333Z,89.10
2022-10-23T08:30:34.781Z,89.00
2022-10-23T08:33:03.279Z,89.29
2022-10-23T08:35:29.946Z,89.17
2022-10-23T08:37:56.769Z,89.15
2022-10-23T08:40:25.393Z,89.00
2022-10-23T08:42:58.996Z,89.11
2022-10-23T08:45:31.288Z,89.37
2022-10-23T08:48:09.440Z,89.37
2022-10-23T08:50:41.612Z,88.94
2022-10-23T08:53:16.065Z,88.92
2022-10-23T08:55:46.236Z,89.01
2022-10-23T08:58:18.426Z,88.93
2022-10-23T09:00:47.542Z,89.00
2022-10-23T09:03:16.394Z,89.20
2022-10-23T09:05:50.573Z,88.95
2022-10-23T09:08:30.529Z,89.12
2022-10-23T09:11:05.182Z,89.00
2022-10-23T09:13:50.139Z,88.96
2022-10-23T09:16:29.122Z,88.81
2022-10-23T09:18:58.357Z,89.20
2022-10-23T09:21:27.415Z,88.91
2022-10-23T09:23:54.123Z,89.04
2022-10-23T09:26:22.876Z,88.98
2022-10-23T09:28:50.319Z,88.82
2022-10-23T09:31:18.445Z,88.79
2022-10-23T09:33:54.791Z,88.94
2022-10-23T09:36:24.508Z,88.64
2022-10-23T09:38:53.522Z,88.57
2022-10-23T09:41:23.278Z,88.49
2022-10-23T09:44:14.174Z,88.69
2022-10-23T09:46:42.674Z,88.60
2022-10-23T09:49:17.297Z,88.60
2022-10-23T09:52:01.533Z,88.61
2022-10-23T09:54:31.213Z,88.84
2022-10-23T09:57:05.084Z,88.82
2022-10-23T09:59:32.724Z,88.70
2022-10-23T10:02:01.139Z,88.70
2022-10-23T10:04:32.375Z,88.58
2022-10-23T10:07:02.036Z,88.30
2022-10-23T10:09:28.863Z,88.14
2022-10-23T10:11:59.285Z,88.15
2022-10-23T10:15:01.674Z,88.26
2022-10-23T10:17:39.458Z,88.34
2022-10-23T10:20:29.913Z,88.40
2022-10-23T10:23:06.243Z,88.25
2022-10-23T10:25:40.217Z,88.20
2022-10-23T10:28:27.578Z,88.17
2022-10-23T10:31:08.773Z,88.05
2022-10-23T10:33:44.444Z,88.36
2022-10-23T10:39:01.463Z,87.98
2022-10-23T10:41:51.983Z,87.95
2022-10-23T10:44:41.303Z,87.97
2022-10-23T10:47:18.477Z,88.04
2022-10-23T10:49:59.734Z,88.04
2022-10-23T10:52:30.526Z,87.83
2022-10-23T10:55:07.007Z,87.73
2022-10-23T10:57:39.307Z,87.60
2022-10-23T11:00:14.349Z,87.68
2022-10-23T11:02:46.557Z,87.39
2022-10-23T11:05:22.224Z,87.51
2022-10-23T11:07:55.546Z,87.55
2022-10-23T11:10:24.002Z,87.38
2022-10-23T11:12:51.501Z,87.32
2022-10-23T11:15:23.483Z,87.16
2022-10-23T11:17:54.951Z,86.98
2022-10-23T11:20:50.969Z,86.96
2022-10-23T11:23:46.247Z,86.83
2022-10-23T11:26:27.344Z,86.66
2022-10-23T11:29:13.425Z,86.57
2022-10-23T11:31:53.444Z,86.61
2022-10-23T11:34:54.411Z,86.64
2022-10-23T11:37:22.965Z,86.62
2022-10-23T11:40:04.508Z,86.39
2022-10-23T11:42:45.810Z,86.25
2022-10-23T11:45:30.950Z,86.17
2022-10-23T11:47:59.524Z,86.02
2022-10-23T11:50:32.826Z,86.00
2022-10-23T11:53:15.009Z,85.90
2022-10-23T11:55:58.106Z,85.96
2022-10-23T11:58:32.103Z,85.78
2022-10-23T12:01:04.289Z,85.68
2022-10-23T12:03:39.876Z,85.60
2022-10-23T12:06:08.964Z,85.44
2022-10-23T12:08:40.862Z,85.39
2022-10-23T12:11:29.880Z,85.28
2022-10-23T12:13:58.035Z,85.35
2022-10-23T12:16:35.199Z,85.17
2022-10-23T12:19:17.907Z,85.17
2022-10-23T12:21:44.960Z,85.07
2022-10-23T12:24:34.719Z,84.83
2022-10-23T12:27:08.874Z,84.72
2022-10-23T12:29:49.768Z,84.68
2022-10-23T12:32:27.921Z,84.58
2022-10-23T12:35:13.059Z,84.46
2022-10-23T12:37:55.897Z,84.41
2022-10-23T12:40:29.840Z,84.28
2022-10-23T12:42:58.523Z,84.08
2022-10-23T12:45:27.734Z,84.09
2022-10-23T12:47:54.670Z,83.88
2022-10-23T12:50:22.840Z,83.79
2022-10-23T12:52:54.552Z,83.72
2022-10-23T12:55:21.963Z,83.67
2022-10-23T12:57:48.824Z,83.68
2022-10-23T13:00:17.351Z,83.71
2022-10-23T13:02:46.236Z,83.78
2022-10-23T13:05:17.384Z,83.61
2022-10-23T13:07:47.628Z,83.61
2022-10-23T13:10:16.278Z,83.60
2022-10-23T13:12:49.680Z,83.55
2022-10-23T13:15:18.519Z,83.57
2022-10-23T13:18:00.997Z,83.61
2022-10-23T13:20:29.744Z,83.61
2022-10-23T13:23:00.827Z,83.48
2022-10-23T13:25:30.849Z,83.27
2022-10-23T13:28:12.939Z,83.27
2022-10-23T13:30:42.779Z,83.12
2022-10-23T13:33:23.463Z,83.16
2022-10-23T13:35:57.758Z,82.88
2022-10-23T13:38:32.705Z,82.85
2022-10-23T13:41:00.718Z,82.87
2022-10-23T13:43:28.290Z,82.72
2022-10-23T13:45:55.680Z,82.56
2022-10-23T13:48:24.475Z,82.39
2022-10-23T13:50:51.506Z,82.24
2022-10-23T13:53:18.328Z,82.16
2022-10-23T13:55:48.962Z,82.03
2022-10-23T13:58:15.603Z,81.86
2022-10-23T14:00:43.776Z,81.81
2022-10-23T14:03:11.154Z,81.67
2022-10-23T14:05:39.227Z,81.54
2022-10-23T14:08:06.643Z,81.69
2022-10-23T14:10:33.909Z,81.57
2022-10-23T14:13:00.610Z,81.56
2022-10-23T14:15:27.278Z,81.47
2022-10-23T14:17:58.937Z,81.35
2022-10-23T14:20:27.876Z,81.29
2022-10-23T14:22:56.246Z,81.39
2022-10-23T14:25:23.247Z,81.26
2022-10-23T14:27:49.983Z,81.21
2022-10-23T14:30:16.729Z,81.24
2022-10-23T14:32:44.460Z,81.18
2022-10-23T14:35:11.419Z,81.27
2022-10-23T14:37:39.452Z,81.21
2022-10-23T14:40:08.899Z,81.02
2022-10-23T14:42:35.743Z,81.04
2022-10-23T14:45:02.719Z,81.05
2022-10-23T14:47:29.758Z,81.14
2022-10-23T14:49:56.652Z,81.02
2022-10-23T14:52:23.837Z,80.97
2022-10-23T14:54:51.574Z,80.92
2022-10-23T14:57:21.765Z,80.94
2022-10-23T14:59:49.317Z,80.83
2022-10-23T15:02:16.899Z,80.83
2022-10-23T15:04:43.659Z,80.77
2022-10-23T15:07:10.497Z,80.79
2022-10-23T15:09:37.446Z,80.86
2022-10-23T15:12:04.569Z,80.68
2022-10-23T15:14:33.947Z,80.52
2022-10-23T15:17:00.621Z,80.56
2022-10-23T15:19:27.414Z,80.69
2022-10-23T15:21:54.259Z,80.74
2022-10-23T15:24:21.084Z,80.59
2022-10-23T15:26:48.616Z,80.76
2022-10-23T15:29:16.356Z,80.66
2022-10-23T15:31:47.724Z,80.63
2022-10-23T15:34:17.099Z,80.74
2022-10-23T15:36:45.038Z,80.81
2022-10-23T15:39:12.946Z,80.73
2022-10-23T15:41:40.980Z,80.70
2022-10-23T15:44:09.350Z,80.73
2022-10-23T15:46:36.416Z,80.87
2022-10-23T15:49:04.932Z,80.92
2022-10-23T15:51:32.300Z,80.85
2022-10-23T15:53:59.289Z,80.87
2022-10-23T15:56:26.441Z,80.98
2022-10-23T15:58:53.124Z,80.92
2022-10-23T16:01:20.932Z,80.96
2022-10-23T16:03:47.622Z,81.04
2022-10-23T16:06:20.211Z,81.18
2022-10-23T16:08:47.492Z,81.11
2022-10-23T16:11:16.755Z,81.20
2022-10-23T16:13:43.959Z,81.15
2022-10-23T16:16:11.203Z,81.38
2022-10-23T16:18:38.109Z,81.14
2022-10-23T16:21:05.214Z,81.20
2022-10-23T16:23:33.944Z,81.26
2022-10-23T16:26:07.763Z,81.24
2022-10-23T16:28:34.612Z,81.39
2022-10-23T16:31:01.364Z,81.39
2022-10-23T16:33:27.939Z,81.38
2022-10-23T16:35:54.660Z,81.42
2022-10-23T16:38:21.263Z,81.14
2022-10-23T16:40:53.824Z,81.25
2022-10-23T16:43:20.424Z,81.36
2022-10-23T16:45:47.207Z,81.30
2022-10-23T16:48:13.777Z,81.31
2022-10-23T16:50:41.437Z,81.39
2022-10-23T16:53:08.075Z,81.37
2022-10-23T16:55:34.749Z,81.39
2022-10-23T16:58:03.667Z,81.49
2022-10-23T17:00:35.327Z,81.44
2022-10-23T17:03:03.172Z,81.63
2022-10-23T17:05:33.304Z,81.50
2022-10-23T17:08:00.715Z,81.63
2022-10-23T17:10:27.663Z,81.50
2022-10-23T17:12:54.441Z,81.57
2022-10-23T17:15:24.022Z,81.61
2022-10-23T17:17:50.927Z,81.47
2022-10-23T17:20:21.993Z,81.83
2022-10-23T17:22:49.525Z,81.72
2022-10-23T17:25:17.495Z,81.78
2022-10-23T17:27:46.416Z,81.72
2022-10-23T17:30:13.410Z,81.81
2022-10-23T17:32:41.954Z,81.80
2022-10-23T17:35:13.070Z,81.96
2022-10-23T17:37:42.323Z,81.83
2022-10-23T17:40:09.924Z,81.89
2022-10-23T17:42:36.690Z,81.86
2022-10-23T17:45:03.571Z,81.78
2022-10-23T17:47:30.591Z,81.89
2022-10-23T17:49:58.740Z,81.85
2022-10-23T17:52:25.543Z,81.97
2022-10-23T17:54:52.891Z,81.94
2022-10-23T17:57:19.641Z,81.92
2022-10-23T17:59:46.373Z,82.04
2022-10-23T18:02:13.113Z,81.96
2022-10-23T18:04:39.969Z,82.14
2022-10-23T18:07:08.175Z,82.07
2022-10-23T18:09:34.907Z,82.20
2022-10-23T18:12:01.596Z,82.03
2022-10-23T18:14:29.556Z,82.16
2022-10-23T18:16:56.570Z,82.15
2022-10-23T18:19:23.638Z,82.15
2022-10-23T18:21:50.416Z,82.27
2022-10-23T18:24:19.634Z,82.39
2022-10-23T18:26:48.184Z,82.44
2022-10-23T18:29:17.520Z,82.40
2022-10-23T18:31:44.787Z,82.48
2022-10-23T18:34:15.601Z,82.54
2022-10-23T18:36:42.231Z,82.62
2022-10-23T18:39:12.599Z,82.57
2022-10-23T18:41:46.266Z,82.55
2022-10-23T18:44:19.047Z,82.67
2022-10-23T18:46:47.038Z,82.63
2022-10-23T18:49:14.731Z,82.69
2022-10-23T18:51:41.678Z,82.67
2022-10-23T18:54:11.108Z,82.51
2022-10-23T18:56:39.685Z,82.70
2022-10-23T18:59:10.006Z,82.56
2022-10-23T19:01:36.718Z,82.40
2022-10-23T19:04:04.131Z,82.51
2022-10-23T19:06:35.818Z,82.55
2022-10-23T19:09:06.033Z,82.50
2022-10-23T19:11:33.023Z,82.56
2022-10-23T19:13:59.670Z,82.60
2022-10-23T19:16:30.840Z,82.50
2022-10-23T19:19:00.477Z,82.33
2022-10-23T19:21:31.682Z,82.30
2022-10-23T19:24:01.342Z,82.36
2022-10-23T19:26:29.902Z,82.49
2022-10-23T19:28:58.879Z,82.40
2022-10-23T19:31:27.399Z,82.45
2022-10-23T19:33:54.455Z,82.38
2022-10-23T19:36:23.405Z,82.41
2022-10-23T19:38:50.224Z,82.20
2022-10-23T19:41:24.470Z,82.24
2022-10-23T19:43:51.198Z,82.26
2022-10-23T19:46:17.933Z,82.18
2022-10-23T19:48:46.868Z,82.03
2022-10-23T19:51:13.725Z,82.30
2022-10-23T19:53:41.373Z,82.45
2022-10-23T19:56:10.769Z,82.63
2022-10-23T19:58:37.584Z,82.60
2022-10-23T20:01:09.554Z,82.60
2022-10-23T20:03:36.298Z,82.48
2022-10-23T20:06:04.458Z,82.26
2022-10-23T20:08:34.246Z,81.94
2022-10-23T20:11:02.009Z,82.28
2022-10-23T20:13:28.800Z,82.16
2022-10-23T20:15:55.572Z,82.03
2022-10-23T20:18:22.359Z,81.78
2022-10-23T20:20:49.370Z,81.72
2022-10-23T20:23:17.548Z,81.53
2022-10-23T20:25:44.239Z,81.08
2022-10-23T20:28:14.255Z,80.59
2022-10-23T20:30:42.508Z,80.52
2022-10-23T20:33:09.421Z,80.56
2022-10-23T20:35:40.433Z,79.93
2022-10-23T20:38:08.577Z,79.81
2022-10-23T20:40:36.839Z,79.75
2022-10-23T20:43:03.574Z,79.51
2022-10-23T20:45:30.256Z,79.35
2022-10-23T20:47:57.132Z,79.37
2022-10-23T20:50:24.494Z,78.72
2022-10-23T20:52:51.844Z,77.89
2022-10-23T20:55:19.370Z,77.65
2022-10-23T20:57:47.562Z,77.11
2022-10-23T21:00:15.611Z,76.91
2022-10-23T21:02:44.878Z,76.89
2022-10-23T21:05:13.903Z,76.92
2022-10-23T21:07:40.569Z,76.70
2022-10-23T21:10:08.121Z,76.43
2022-10-23T21:12:35.482Z,76.22
2022-10-23T21:15:03.842Z,76.17
2022-10-23T21:17:35.681Z,76.31
2022-10-23T21:20:02.788Z,76.20
2022-10-23T21:22:29.739Z,76.17
2022-10-23T21:24:58.352Z,76.34
2022-10-23T21:27:24.815Z,76.10
2022-10-23T21:29:51.648Z,76.47
2022-10-23T21:32:20.848Z,76.45
2022-10-23T21:34:47.555Z,76.44
2022-10-23T21:37:14.882Z,76.51
2022-10-23T21:39:42.473Z,76.59
2022-10-23T21:42:09.446Z,76.88
2022-10-23T21:44:36.255Z,76.80
2022-10-23T21:47:02.822Z,77.06
2022-10-23T21:49:30.973Z,77.21
2022-10-23T21:51:57.602Z,77.36
2022-10-23T21:54:24.300Z,77.50
2022-10-23T21:56:53.930Z,77.33
2022-10-23T21:59:22.962Z,77.78
2022-10-23T22:01:50.272Z,77.88
2022-10-23T22:04:19.087Z,78.16
2022-10-23T22:06:48.620Z,78.49
2022-10-23T22:09:19.412Z,78.95
2022-10-23T22:11:46.518Z,79.48
2022-10-23T22:14:13.330Z,79.84
2022-10-23T22:16:41.878Z,80.41
2022-10-23T22:19:10.695Z,80.91
2022-10-23T22:21:37.564Z,81.49
2022-10-23T22:24:06.308Z,81.69
2022-10-23T22:26:35.748Z,82.19
2022-10-23T22:29:05.631Z,82.29
2022-10-23T22:31:33.748Z,82.65
2022-10-23T22:34:13.031Z,82.90
2022-10-23T22:36:48.305Z,82.93
2022-10-23T22:39:16.296Z,83.34
2022-10-23T22:41:47.471Z,83.58
2022-10-23T22:44:14.913Z,83.66
2022-10-23T22:46:42.313Z,83.82
2022-10-23T22:49:09.441Z,83.73
2022-10-23T22:51:38.923Z,83.99
2022-10-23T22:54:06.054Z,84.00
2022-10-23T22:56:34.443Z,84.15
2022-10-23T22:59:01.371Z,84.25
2022-10-23T23:01:31.398Z,84.37
2022-10-23T23:04:08.651Z,84.47
2022-10-23T23:06:45.701Z,84.55
2022-10-23T23:09:14.208Z,84.58
2022-10-23T23:11:51.915Z,84.72
2022-10-23T23:14:22.978Z,84.72
2022-10-23T23:16:51.774Z,84.77
2022-10-23T23:19:18.657Z,84.83
2022-10-23T23:21:45.313Z,85.18
2022-10-23T23:24:12.159Z,85.07
2022-10-23T23:26:38.882Z,85.04
2022-10-23T23:29:07.217Z,85.12
2022-10-23T23:31:33.952Z,85.08
2022-10-23T23:34:01.007Z,85.48
2022-10-23T23:36:28.613Z,85.26
2022-10-23T23:38:56.816Z,85.47
2022-10-23T23:41:24.544Z,85.33
2022-10-23T23:43:54.278Z,85.53
2022-10-23T23:46:22.405Z,85.45
2022-10-23T23:48:49.857Z,85.26
2022-10-23T23:51:18.812Z,85.49
2022-10-23T23:53:45.638Z,85.45
2022-10-23T23:56:12.251Z,85.57
2022-10-23T23:58:38.983Z,85.64
